createdAt,value
2018-09-19T00:00:19.588Z,3.10
2018-09-19T00:02:48.146Z,2.70
2018-09-19T00:05:16.745Z,2.77
2018-09-19T00:07:45.315Z,2.97
2018-09-19T00:10:13.887Z,2.90
2018-09-19T00:12:42.424Z,2.50
2018-09-19T00:15:10.986Z,3.27
2018-09-19T00:17:39.561Z,3.17
2018-09-19T00:20:08.200Z,2.97
2018-09-19T00:22:36.772Z,3.77
2018-09-19T00:25:05.385Z,3.20
2018-09-19T00:27:33.970Z,3.10
2018-09-19T00:30:02.497Z,3.17
2018-09-19T00:32:31.087Z,3.00
2018-09-19T00:34:59.660Z,3.23
2018-09-19T00:37:28.272Z,3.30
2018-09-19T00:39:56.850Z,3.13
2018-09-19T00:42:25.445Z,3.00
2018-09-19T00:44:54.001Z,2.90
2018-09-19T00:47:22.598Z,3.13
2018-09-19T00:49:51.153Z,3.23
2018-09-19T00:52:19.737Z,3.40
2018-09-19T00:54:48.306Z,3.17
2018-09-19T00:57:16.956Z,3.50
2018-09-19T00:59:45.530Z,3.43
2018-09-19T01:02:14.133Z,4.43
2018-09-19T01:04:42.721Z,3.20
2018-09-19T01:07:11.343Z,3.50
2018-09-19T01:09:39.923Z,3.50
2018-09-19T01:12:08.515Z,3.87
2018-09-19T01:14:37.053Z,3.87
2018-09-19T01:17:05.688Z,3.70
2018-09-19T01:19:34.240Z,4.10
2018-09-19T01:22:02.861Z,3.87
2018-09-19T01:24:31.439Z,4.47
2018-09-19T01:27:00.065Z,4.13
2018-09-19T01:29:28.604Z,3.40
2018-09-19T01:31:57.222Z,3.80
2018-09-19T01:34:25.796Z,3.90
2018-09-19T01:36:54.404Z,3.90
2018-09-19T01:39:22.957Z,3.83
2018-09-19T01:41:51.549Z,4.30
2018-09-19T01:44:20.125Z,3.87
2018-09-19T01:46:48.681Z,4.20
2018-09-19T01:49:17.252Z,4.13
2018-09-19T01:51:45.894Z,4.37
2018-09-19T01:54:14.463Z,4.30
2018-09-19T01:56:43.062Z,4.70
2018-09-19T01:59:11.634Z,4.20
2018-09-19T02:01:40.289Z,4.60
2018-09-19T02:04:08.801Z,4.43
2018-09-19T02:06:37.387Z,4.57
2018-09-19T02:09:09.123Z,4.60
2018-09-19T02:11:37.826Z,4.57
2018-09-19T02:14:06.671Z,4.50
2018-09-19T02:16:35.272Z,4.40
2018-09-19T02:19:03.866Z,5.73
2018-09-19T02:21:32.458Z,4.83
2018-09-19T02:24:01.076Z,5.00
2018-09-19T02:26:29.604Z,4.67
2018-09-19T02:28:58.224Z,4.53
2018-09-19T02:31:27.119Z,4.83
2018-09-19T02:33:56.144Z,5.13
2018-09-19T02:36:26.041Z,5.27
2018-09-19T02:38:56.702Z,5.00
2018-09-19T02:41:25.300Z,5.27
2018-09-19T02:43:53.931Z,5.53
2018-09-19T02:46:22.514Z,5.40
2018-09-19T02:48:51.117Z,6.13
2018-09-19T02:51:19.665Z,5.57
2018-09-19T02:53:48.896Z,5.87
2018-09-19T02:56:17.509Z,5.40
2018-09-19T02:58:46.104Z,5.40
2018-09-19T03:01:14.662Z,5.50
2018-09-19T03:03:43.281Z,5.47
2018-09-19T03:06:11.857Z,6.07
2018-09-19T03:08:40.442Z,6.70
2018-09-19T03:11:09.001Z,6.20
2018-09-19T03:13:37.648Z,6.20
2018-09-19T03:16:06.213Z,6.07
2018-09-19T03:18:34.806Z,6.03
2018-09-19T03:21:03.363Z,6.47
2018-09-19T03:23:31.949Z,6.70
2018-09-19T03:26:00.491Z,6.90
2018-09-19T03:28:29.076Z,6.30
2018-09-19T03:30:57.626Z,6.27
2018-09-19T03:33:26.196Z,6.20
2018-09-19T03:35:54.765Z,5.83
2018-09-19T03:38:23.408Z,5.93
2018-09-19T03:40:51.983Z,5.77
2018-09-19T03:43:20.567Z,6.00
2018-09-19T03:45:49.153Z,6.10
2018-09-19T03:48:17.746Z,6.27
2018-09-19T03:50:46.328Z,6.57
2018-09-19T03:53:14.911Z,6.70
2018-09-19T03:55:43.497Z,6.70
2018-09-19T03:58:12.101Z,6.77
2018-09-19T04:00:40.739Z,6.47
2018-09-19T04:03:09.357Z,6.63
2018-09-19T04:05:37.944Z,6.87
2018-09-19T04:08:06.668Z,6.37
2018-09-19T04:10:35.264Z,7.03
2018-09-19T04:13:03.875Z,6.47
2018-09-19T04:15:32.420Z,6.60
2018-09-19T04:18:01.013Z,6.33
2018-09-19T04:20:29.599Z,8.93
2018-09-19T04:22:58.503Z,6.23
2018-09-19T04:25:27.070Z,6.10
2018-09-19T04:27:55.625Z,6.10
2018-09-19T04:30:24.231Z,6.40
2018-09-19T04:32:52.873Z,6.63
2018-09-19T04:35:21.474Z,6.53
2018-09-19T04:37:50.054Z,7.17
2018-09-19T04:40:18.680Z,6.60
2018-09-19T04:42:47.216Z,7.00
2018-09-19T04:45:15.912Z,6.73
2018-09-19T04:47:44.422Z,6.03
2018-09-19T04:50:13.008Z,6.60
2018-09-19T04:52:41.576Z,6.03
2018-09-19T04:55:10.577Z,4.93
2018-09-19T04:57:42.979Z,4.90
2018-09-19T05:00:11.603Z,5.20
2018-09-19T05:02:40.741Z,5.73
2018-09-19T05:05:09.806Z,6.20
2018-09-19T05:07:47.660Z,5.67
2018-09-19T05:10:16.336Z,5.60
2018-09-19T05:12:45.016Z,5.60
2018-09-19T05:15:14.200Z,5.93
2018-09-19T05:17:43.016Z,6.00
2018-09-19T05:20:11.590Z,5.67
2018-09-19T05:22:40.163Z,5.63
2018-09-19T05:25:09.834Z,5.70
2018-09-19T05:27:38.424Z,7.17
2018-09-19T05:30:07.733Z,6.90
2018-09-19T05:32:36.355Z,7.17
2018-09-19T05:35:08.250Z,5.43
2018-09-19T05:37:38.640Z,4.50
2018-09-19T05:40:07.272Z,5.50
2018-09-19T05:42:35.840Z,5.40
2018-09-19T05:45:04.551Z,5.43
2018-09-19T05:47:33.115Z,5.27
2018-09-19T05:50:01.723Z,5.20
2018-09-19T05:52:30.286Z,4.93
2018-09-19T05:55:00.077Z,5.53
2018-09-19T05:57:30.196Z,4.97
2018-09-19T05:59:58.837Z,4.83
2018-09-19T06:02:27.388Z,4.70
2018-09-19T06:04:56.576Z,5.70
2018-09-19T06:07:25.299Z,4.83
2018-09-19T06:09:53.918Z,5.20
2018-09-19T06:12:22.477Z,4.93
2018-09-19T06:14:51.068Z,4.87
2018-09-19T06:17:19.747Z,5.30
2018-09-19T06:19:48.482Z,5.10
2018-09-19T06:22:17.042Z,6.23
2018-09-19T06:24:45.648Z,7.40
2018-09-19T06:27:14.259Z,5.97
2018-09-19T06:29:42.874Z,7.40
2018-09-19T06:32:12.093Z,6.33
2018-09-19T06:34:40.717Z,7.27
2018-09-19T06:37:09.400Z,6.53
2018-09-19T06:39:38.002Z,8.30
2018-09-19T06:42:06.624Z,8.53
2018-09-19T06:44:35.252Z,7.20
2018-09-19T06:47:03.929Z,7.27
2018-09-19T06:49:32.476Z,6.83
2018-09-19T06:52:01.134Z,6.97
2018-09-19T06:54:29.652Z,6.50
2018-09-19T06:56:58.258Z,6.60
2018-09-19T06:59:26.816Z,6.20
2018-09-19T07:01:55.409Z,6.87
2018-09-19T07:04:23.988Z,5.87
2018-09-19T07:06:52.648Z,5.13
2018-09-19T07:09:21.212Z,4.90
2018-09-19T07:11:49.781Z,4.90
2018-09-19T07:14:18.439Z,7.03
2018-09-19T07:16:47.010Z,4.70
2018-09-19T07:19:15.564Z,4.70
2018-09-19T07:21:44.133Z,5.03
2018-09-19T07:24:12.672Z,5.10
2018-09-19T07:26:41.283Z,4.97
2018-09-19T07:29:09.848Z,6.10
2018-09-19T07:31:38.430Z,6.20
2018-09-19T07:34:07.001Z,6.00
2018-09-19T07:36:35.592Z,6.50
2018-09-19T07:39:04.651Z,6.30
2018-09-19T07:41:33.286Z,6.50
2018-09-19T07:44:01.844Z,6.13
2018-09-19T07:46:30.524Z,6.40
2018-09-19T07:48:59.036Z,6.30
2018-09-19T07:51:27.637Z,6.10
2018-09-19T07:53:56.214Z,6.30
2018-09-19T07:56:24.808Z,6.67
2018-09-19T07:58:53.545Z,6.60
2018-09-19T08:01:22.227Z,6.80
2018-09-19T08:03:50.755Z,6.90
2018-09-19T08:06:19.317Z,7.17
2018-09-19T08:08:47.865Z,7.10
2018-09-19T08:11:16.485Z,6.30
2018-09-19T08:13:45.035Z,5.70
2018-09-19T08:16:13.647Z,5.50
2018-09-19T08:18:42.229Z,5.40
2018-09-19T08:21:10.868Z,5.40
2018-09-19T08:23:39.425Z,6.23
2018-09-19T08:26:08.038Z,5.93
2018-09-19T08:28:36.588Z,6.50
2018-09-19T08:31:05.186Z,6.20
2018-09-19T08:33:33.793Z,6.60
2018-09-19T08:36:02.396Z,5.50
2018-09-19T08:38:30.959Z,5.63
2018-09-19T08:40:59.543Z,4.47
2018-09-19T08:43:28.126Z,5.17
2018-09-19T08:45:56.727Z,4.30
2018-09-19T08:48:25.282Z,4.47
2018-09-19T08:50:53.933Z,5.50
2018-09-19T08:53:22.535Z,5.00
2018-09-19T08:55:51.158Z,4.70
2018-09-19T08:58:19.857Z,5.03
2018-09-19T09:00:52.184Z,4.43
2018-09-19T09:03:20.809Z,4.83
2018-09-19T09:05:49.392Z,4.90
2018-09-19T09:08:18.025Z,6.60
2018-09-19T09:10:48.411Z,5.10
2018-09-19T09:13:17.932Z,5.10
2018-09-19T09:15:46.489Z,5.33
2018-09-19T09:18:15.082Z,5.10
2018-09-19T09:20:43.692Z,4.70
2018-09-19T09:23:12.325Z,5.60
2018-09-19T09:25:40.938Z,4.90
2018-09-19T09:28:09.996Z,4.53
2018-09-19T09:30:38.546Z,5.10
2018-09-19T09:33:07.596Z,5.20
2018-09-19T09:35:36.330Z,4.87
2018-09-19T09:38:04.920Z,4.53
2018-09-19T09:40:33.553Z,4.30
2018-09-19T09:43:02.132Z,4.53
2018-09-19T09:45:30.693Z,4.40
2018-09-19T09:47:59.283Z,4.70
2018-09-19T09:50:27.875Z,4.72
2018-09-19T09:52:56.407Z,4.62
2018-09-19T09:55:24.977Z,4.60
2018-09-19T09:57:53.563Z,4.40
2018-09-19T10:00:27.533Z,4.83
2018-09-19T10:02:56.104Z,4.30
2018-09-19T10:05:25.455Z,4.65
2018-09-19T10:07:54.792Z,4.60
2018-09-19T10:10:23.333Z,4.25
2018-09-19T10:12:51.915Z,5.45
2018-09-19T10:15:20.456Z,4.35
2018-09-19T10:17:49.161Z,4.50
2018-09-19T10:20:17.758Z,4.30
2018-09-19T10:22:46.364Z,4.25
2018-09-19T10:25:14.922Z,3.98
2018-09-19T10:27:43.497Z,4.70
2018-09-19T10:30:12.669Z,4.25
2018-09-19T10:32:41.263Z,4.55
2018-09-19T10:35:09.814Z,3.80
2018-09-19T10:37:38.393Z,4.10
2018-09-19T10:40:07.280Z,4.33
2018-09-19T10:42:35.856Z,4.28
2018-09-19T10:45:04.823Z,4.15
2018-09-19T10:47:34.449Z,4.20
2018-09-19T10:50:03.436Z,4.30
2018-09-19T10:52:32.052Z,3.70
2018-09-19T10:55:00.794Z,4.20
2018-09-19T10:57:30.144Z,4.22
2018-09-19T10:59:58.846Z,4.47
2018-09-19T11:02:27.428Z,4.47
2018-09-19T11:04:55.988Z,5.17
2018-09-19T11:07:24.567Z,4.80
2018-09-19T11:09:53.315Z,3.90
2018-09-19T11:12:21.845Z,4.90
2018-09-19T11:14:50.411Z,4.55
2018-09-19T11:17:18.969Z,4.15
2018-09-19T11:19:47.572Z,4.22
2018-09-19T11:22:16.156Z,4.28
2018-09-19T11:24:44.784Z,3.80
2018-09-19T11:27:13.841Z,3.37
2018-09-19T11:29:42.482Z,3.80
2018-09-19T11:32:11.413Z,3.15
2018-09-19T11:34:40.449Z,3.90
2018-09-19T11:37:11.167Z,3.58
2018-09-19T11:39:41.082Z,3.20
2018-09-19T11:42:09.680Z,3.25
2018-09-19T11:44:38.253Z,3.20
2018-09-19T11:47:06.973Z,3.37
2018-09-19T11:49:35.553Z,3.22
2018-09-19T11:52:04.104Z,3.10
2018-09-19T11:54:32.825Z,3.27
2018-09-19T11:57:01.344Z,3.62
2018-09-19T11:59:29.930Z,3.55
2018-09-19T12:01:58.530Z,3.70
2018-09-19T12:04:27.110Z,3.30
2018-09-19T12:06:55.667Z,3.72
2018-09-19T12:09:24.223Z,3.72
2018-09-19T12:11:52.764Z,3.75
2018-09-19T12:14:21.371Z,3.60
2018-09-19T12:16:49.928Z,3.80
2018-09-19T12:19:18.507Z,2.95
2018-09-19T12:21:47.025Z,2.87
2018-09-19T12:24:15.612Z,2.90
2018-09-19T12:26:44.210Z,2.95
2018-09-19T12:29:12.757Z,2.83
2018-09-19T12:31:41.311Z,2.92
2018-09-19T12:34:09.876Z,3.25
2018-09-19T12:36:38.424Z,2.75
2018-09-19T12:39:08.871Z,2.58
2018-09-19T12:41:37.443Z,2.60
2018-09-19T12:44:06.061Z,2.80
2018-09-19T12:46:34.954Z,2.72
2018-09-19T12:49:03.576Z,3.10
2018-09-19T12:51:32.121Z,3.00
2018-09-19T12:54:00.692Z,3.00
2018-09-19T12:56:29.300Z,2.90
2018-09-19T12:58:57.935Z,3.87
2018-09-19T13:01:26.475Z,2.87
2018-09-19T13:03:55.055Z,2.55
2018-09-19T13:06:23.654Z,7.92
2018-09-19T13:08:52.266Z,5.70
2018-09-19T13:11:20.841Z,5.15
2018-09-19T13:13:49.425Z,5.50
2018-09-19T13:16:17.956Z,4.70
2018-09-19T13:18:46.547Z,4.03
2018-09-19T13:21:15.156Z,3.17
2018-09-19T13:23:43.719Z,3.55
2018-09-19T13:26:12.317Z,3.90
2018-09-19T13:28:40.884Z,5.12
2018-09-19T13:31:09.488Z,5.22
2018-09-19T13:33:38.095Z,5.78
2018-09-19T13:36:07.536Z,7.25
2018-09-19T13:38:36.091Z,5.47
2018-09-19T13:41:04.813Z,5.22
2018-09-19T13:43:33.407Z,5.47
2018-09-19T13:46:02.032Z,5.60
2018-09-19T13:48:30.621Z,4.92
2018-09-19T13:51:11.544Z,5.53
2018-09-19T13:53:40.869Z,4.30
2018-09-19T13:56:09.473Z,5.65
2018-09-19T13:58:38.014Z,5.20
2018-09-19T14:01:06.677Z,5.53
2018-09-19T14:03:35.259Z,4.80
2018-09-19T14:06:03.865Z,3.65
2018-09-19T14:08:32.428Z,4.47
2018-09-19T14:11:01.033Z,4.28
2018-09-19T14:13:29.592Z,4.75
2018-09-19T14:15:58.749Z,5.12
2018-09-19T14:18:27.372Z,4.40
2018-09-19T14:20:55.993Z,4.90
2018-09-19T14:23:24.540Z,3.90
2018-09-19T14:25:53.147Z,4.30
2018-09-19T14:28:21.808Z,4.28
2018-09-19T14:30:50.343Z,4.00
2018-09-19T14:33:18.961Z,4.10
2018-09-19T14:35:47.591Z,4.33
2018-09-19T14:38:16.246Z,4.55
2018-09-19T14:40:44.821Z,4.95
2018-09-19T14:43:13.412Z,4.03
2018-09-19T14:45:42.009Z,4.30
2018-09-19T14:48:10.540Z,5.10
2018-09-19T14:50:39.120Z,4.33
2018-09-19T14:53:07.702Z,4.47
2018-09-19T14:55:36.295Z,4.10
2018-09-19T14:58:04.893Z,4.08
2018-09-19T15:00:33.490Z,3.80
2018-09-19T15:03:02.069Z,4.15
2018-09-19T15:05:30.644Z,4.30
2018-09-19T15:07:59.235Z,3.72
2018-09-19T15:11:52.191Z,4.22
2018-09-19T15:14:21.434Z,4.40
2018-09-19T15:16:50.048Z,4.03
2018-09-19T15:19:18.636Z,4.30
2018-09-19T15:21:47.821Z,3.72
2018-09-19T15:24:16.412Z,4.75
2018-09-19T15:26:44.984Z,4.33
2018-09-19T15:29:13.505Z,4.95
2018-09-19T15:31:42.072Z,3.60
2018-09-19T15:34:10.584Z,3.55
2018-09-19T15:36:41.369Z,3.45
2018-09-19T15:39:10.448Z,3.30
2018-09-19T15:41:39.012Z,3.10
2018-09-19T15:44:07.603Z,3.65
2018-09-19T15:46:36.657Z,3.40
2018-09-19T15:49:05.192Z,3.67
2018-09-19T15:51:33.893Z,3.52
2018-09-19T15:54:02.455Z,3.58
2018-09-19T15:56:31.028Z,3.52
2018-09-19T15:58:59.599Z,3.47
2018-09-19T16:01:28.171Z,5.03
2018-09-19T16:03:56.760Z,3.30
2018-09-19T16:06:25.344Z,3.67
2018-09-19T16:08:53.877Z,3.55
2018-09-19T16:11:22.484Z,3.33
2018-09-19T16:13:51.024Z,3.42
2018-09-19T16:16:19.704Z,3.60
2018-09-19T16:18:48.263Z,3.70
2018-09-19T16:21:16.856Z,3.30
2018-09-19T16:23:45.376Z,3.08
2018-09-19T16:26:13.966Z,3.55
2018-09-19T16:28:42.480Z,3.37
2018-09-19T16:31:11.026Z,3.47
2018-09-19T16:33:39.576Z,3.70
2018-09-19T16:36:08.101Z,3.27
2018-09-19T16:38:36.643Z,4.72
2018-09-19T16:41:05.208Z,5.40
2018-09-19T16:43:33.829Z,4.33
2018-09-19T16:46:02.401Z,3.52
2018-09-19T16:48:31.232Z,3.80
2018-09-19T16:50:59.768Z,3.92
2018-09-19T16:53:28.356Z,4.05
2018-09-19T16:55:56.944Z,3.83
2018-09-19T16:58:25.525Z,3.80
2018-09-19T17:00:54.057Z,3.50
2018-09-19T17:03:22.608Z,4.75
2018-09-19T17:05:51.183Z,3.77
2018-09-19T17:08:19.702Z,4.10
2018-09-19T17:10:48.237Z,3.83
2018-09-19T17:13:17.038Z,4.92
2018-09-19T17:15:46.142Z,4.22
2018-09-19T17:18:14.671Z,4.30
2018-09-19T17:20:43.209Z,4.20
2018-09-19T17:23:11.776Z,4.22
2018-09-19T17:25:40.519Z,4.20
2018-09-19T17:28:09.033Z,4.37
2018-09-19T17:30:37.553Z,4.60
2018-09-19T17:33:06.165Z,4.63
2018-09-19T17:35:34.712Z,5.00
2018-09-19T17:38:03.344Z,4.90
2018-09-19T17:40:31.927Z,4.60
2018-09-19T17:43:00.516Z,5.63
2018-09-19T17:45:29.089Z,5.70
2018-09-19T17:47:57.764Z,5.27
2018-09-19T17:50:25.395Z,5.60
2018-09-19T17:52:54.014Z,5.73
2018-09-19T17:55:22.626Z,5.33
2018-09-19T17:57:51.188Z,4.87
2018-09-19T18:00:19.797Z,5.83
2018-09-19T18:02:48.370Z,5.70
2018-09-19T18:05:16.980Z,6.63
2018-09-19T18:07:45.516Z,5.53
2018-09-19T18:10:14.138Z,5.90
2018-09-19T18:12:42.740Z,6.37
2018-09-19T18:15:11.332Z,6.27
2018-09-19T18:17:39.924Z,6.13
2018-09-19T18:20:09.154Z,6.40
2018-09-19T18:22:37.678Z,6.07
2018-09-19T18:25:06.328Z,7.20
2018-09-19T18:27:35.745Z,6.77
2018-09-19T18:30:04.330Z,7.93
2018-09-19T18:32:32.877Z,6.57
2018-09-19T18:35:01.469Z,6.53
2018-09-19T18:37:30.017Z,7.07
2018-09-19T18:39:58.616Z,7.03
2018-09-19T18:42:27.186Z,6.83
2018-09-19T18:44:55.782Z,7.07
2018-09-19T18:47:24.405Z,6.17
2018-09-19T18:49:53.068Z,6.90
2018-09-19T18:52:21.651Z,6.63
2018-09-19T18:54:50.289Z,6.73
2018-09-19T18:57:18.850Z,6.90
2018-09-19T18:59:47.451Z,7.50
2018-09-19T19:02:17.053Z,6.80
2018-09-19T19:04:45.688Z,6.70
2018-09-19T19:07:14.257Z,6.87
2018-09-19T19:09:42.847Z,7.40
2018-09-19T19:12:11.439Z,7.70
2018-09-19T19:14:40.022Z,7.70
2018-09-19T19:17:08.642Z,7.20
2018-09-19T19:19:37.246Z,7.50
2018-09-19T19:22:05.890Z,6.87
2018-09-19T19:24:34.448Z,6.87
2018-09-19T19:27:03.166Z,6.97
2018-09-19T19:29:31.778Z,6.70
2018-09-19T19:32:00.467Z,6.83
2018-09-19T19:34:29.007Z,6.70
2018-09-19T19:36:57.616Z,6.70
2018-09-19T19:39:26.227Z,6.43
2018-09-19T19:41:55.113Z,7.03
2018-09-19T19:44:23.691Z,7.10
2018-09-19T19:46:52.293Z,7.90
2018-09-19T19:49:20.857Z,8.40
2018-09-19T19:51:49.460Z,6.70
2018-09-19T19:54:18.061Z,6.83
2018-09-19T19:56:46.671Z,7.17
2018-09-19T19:59:15.272Z,7.33
2018-09-19T20:01:43.863Z,7.50
2018-09-19T20:04:12.415Z,7.40
2018-09-19T20:06:41.037Z,7.93
2018-09-19T20:09:09.996Z,6.97
2018-09-19T20:11:39.097Z,6.37
2018-09-19T20:14:07.768Z,6.40
2018-09-19T20:16:36.393Z,7.23
2018-09-19T20:19:04.952Z,8.20
2018-09-19T20:21:35.476Z,7.00
2018-09-19T20:24:04.229Z,7.23
2018-09-19T20:26:32.835Z,7.53
2018-09-19T20:29:01.420Z,7.43
2018-09-19T20:31:30.113Z,7.53
2018-09-19T20:33:58.642Z,8.03
2018-09-19T20:36:27.473Z,7.20
2018-09-19T20:38:56.072Z,8.97
2018-09-19T20:41:25.296Z,7.93
2018-09-19T20:43:53.859Z,7.23
2018-09-19T20:46:22.463Z,7.33
2018-09-19T20:48:51.108Z,8.17
2018-09-19T20:51:19.776Z,11.67
2018-09-19T20:53:48.347Z,8.20
2018-09-19T20:56:17.012Z,8.33
2018-09-19T20:58:45.646Z,8.03
2018-09-19T21:01:14.245Z,9.13
2018-09-19T21:03:42.849Z,8.60
2018-09-19T21:06:12.227Z,7.83
2018-09-19T21:15:42.477Z,8.60
2018-09-19T21:18:11.090Z,8.27
2018-09-19T21:20:39.674Z,9.27
2018-09-19T21:23:08.314Z,7.77
2018-09-19T21:25:36.880Z,8.10
2018-09-19T21:28:05.560Z,8.80
2018-09-19T21:30:34.146Z,7.63
2018-09-19T21:33:02.775Z,8.30
2018-09-19T21:35:31.541Z,8.27
2018-09-19T21:38:00.136Z,8.10
2018-09-19T21:40:28.733Z,8.30
2018-09-19T21:42:57.313Z,8.53
2018-09-19T21:45:25.869Z,7.77
2018-09-19T21:47:54.506Z,7.60
2018-09-19T21:50:23.152Z,8.10
2018-09-19T21:52:51.737Z,9.43
2018-09-19T21:55:20.316Z,9.43
2018-09-19T21:57:48.933Z,8.77
2018-09-19T22:00:17.519Z,8.27
2018-09-19T22:02:46.118Z,8.83
2018-09-19T22:05:14.690Z,8.83
2018-09-19T22:07:43.274Z,8.17
2018-09-19T22:10:11.840Z,7.97
2018-09-19T22:12:40.424Z,8.47
2018-09-19T22:15:09.032Z,8.97
2018-09-19T22:17:37.670Z,9.10
2018-09-19T22:20:06.244Z,9.10
2018-09-19T22:22:34.913Z,8.60
2018-09-19T22:25:03.492Z,9.00
2018-09-19T22:27:32.912Z,8.87
2018-09-19T22:30:01.504Z,8.57
2018-09-19T22:32:30.048Z,8.20
2018-09-19T22:34:58.704Z,8.43
2018-09-19T22:37:27.266Z,7.90
2018-09-19T22:39:55.861Z,8.23
2018-09-19T22:42:24.430Z,8.13
2018-09-19T22:44:53.090Z,8.07
2018-09-19T22:47:21.677Z,8.30
2018-09-19T22:49:50.296Z,8.53
2018-09-19T22:52:18.845Z,7.90
2018-09-19T22:54:47.456Z,8.07
2018-09-19T22:57:16.025Z,7.87
2018-09-19T22:59:44.619Z,8.83
2018-09-19T23:02:13.213Z,9.07
2018-09-19T23:04:41.837Z,8.33
2018-09-19T23:07:10.417Z,8.37
2018-09-19T23:09:39.025Z,8.33
2018-09-19T23:12:07.597Z,7.90
2018-09-19T23:14:36.184Z,7.87
2018-09-19T23:17:04.774Z,8.07
2018-09-19T23:19:33.363Z,8.10
2018-09-19T23:22:02.181Z,8.60
2018-09-19T23:24:30.816Z,9.20
2018-09-19T23:26:59.391Z,8.53
2018-09-19T23:29:28.037Z,8.77
2018-09-19T23:31:56.607Z,9.93
2018-09-19T23:34:25.225Z,8.33
2018-09-19T23:36:53.778Z,8.67
2018-09-19T23:39:22.394Z,8.97
2018-09-19T23:41:50.957Z,9.67
2018-09-19T23:44:19.559Z,8.20
2018-09-19T23:46:48.149Z,7.20
2018-09-19T23:49:16.742Z,10.70
2018-09-19T23:51:45.290Z,8.00
2018-09-19T23:54:13.893Z,8.00
2018-09-19T23:56:42.452Z,8.50
2018-09-19T23:59:11.096Z,8.70
